Pau, France

9:34 PM CEST on August 24, 2016 (GMT +0200)
Pau / Pyrenees | | Change Station

Elev 607 ft 43.38 °N, 0.42 °W | Updated 4 minutes ago

Clear
Clear
77 °F
Feels Like 77 °F
N
6
Wind Variable Wind from West

Today
High -- | Low -- °F
--% Chance of Precip.
Yesterday
High -- | Low -- °F
Precip. -- in
Pressure 30.04 in
Visibility -9999.0 miles
Clouds
Dew Point 66 °F
Humidity 69%
Rainfall 0.00 in
Snow Depth Not available.
7:17 AM 8:49 PM
Waning Gibbous, 54% visible
METAR LFBP 241930Z AUTO 26005KT CAVOK 25/19 Q1017 NOSIG
Pressure 30.04 in
Visibility -9999.0 miles
Clouds
Dew Point 66 °F
Humidity 69%
Rainfall 0.00 in
Snow Depth Not available.
7:17 AM 8:49 PM
Waning Gibbous, 54% visible
METAR LFBP 241930Z AUTO 26005KT CAVOK 25/19 Q1017 NOSIG

10-Day Weather Forecast

×

Almanac

Astronomy

Aug. 24, 2016 Rise Set
Actual Time
Civil Twilight
Nautical Twilight
Astronomical Twilight
Moon
Length of Visible Light
Length of Day
Tomorrow will be .
, % of the Moon is Illuminated

Today's Extremes

Country Highs Country Lows

Community

WunderPhotos

Upload Photos

1,934,689 photos uploaded!

WunderBlog® & News

Nearby

Air Quality

  Air Quality AQ Index Pollutant
Not available.

Snow Depth

Station Depth Elevation

Earthquake Activity

City Distance Mag. Time & Date
Minimum magnitude displayed is 2.5.

Coastal Water Temperatures

Place Temperature

Stations

Nearby Weather Stations

Station Location Temp. Windchill Dew Point Humidity Wind Precip. Elev Updated Type